sensor_id;sensor_type;location;lat;lon;timestamp;temperature;humidity
77218;DHT22;66214;51.302;17.068;2023-11-21T00:00:46;8.76;96.35
77218;DHT22;66214;51.302;17.068;2023-11-21T00:03:39;8.74;96.30
77218;DHT22;66214;51.302;17.068;2023-11-21T00:06:08;8.73;96.37
77218;DHT22;66214;51.302;17.068;2023-11-21T00:11:56;8.73;96.46
77218;DHT22;66214;51.302;17.068;2023-11-21T00:14:24;8.73;96.37
77218;DHT22;66214;51.302;17.068;2023-11-21T00:16:52;8.71;96.29
77218;DHT22;66214;51.302;17.068;2023-11-21T00:19:20;8.70;96.32
77218;DHT22;66214;51.302;17.068;2023-11-21T00:21:48;8.68;96.30
77218;DHT22;66214;51.302;17.068;2023-11-21T00:24:17;8.66;96.12
77218;DHT22;66214;51.302;17.068;2023-11-21T00:26:45;8.62;96.12
77218;DHT22;66214;51.302;17.068;2023-11-21T00:29:13;8.61;96.21
77218;DHT22;66214;51.302;17.068;2023-11-21T00:31:45;8.60;96.23
77218;DHT22;66214;51.302;17.068;2023-11-21T00:34:13;8.60;96.20
77218;DHT22;66214;51.302;17.068;2023-11-21T00:36:41;8.59;96.20
77218;DHT22;66214;51.302;17.068;2023-11-21T00:39:09;8.57;96.18
77218;DHT22;66214;51.302;17.068;2023-11-21T00:41:39;8.56;96.23
77218;DHT22;66214;51.302;17.068;2023-11-21T00:44:07;8.55;96.23
77218;DHT22;66214;51.302;17.068;2023-11-21T00:46:35;8.54;96.23
77218;DHT22;66214;51.302;17.068;2023-11-21T00:49:03;8.54;96.29
77218;DHT22;66214;51.302;17.068;2023-11-21T00:51:31;8.53;96.28
77218;DHT22;66214;51.302;17.068;2023-11-21T00:53:59;8.54;96.36
77218;DHT22;66214;51.302;17.068;2023-11-21T00:56:27;8.55;96.33
77218;DHT22;66214;51.302;17.068;2023-11-21T00:58:56;8.55;96.39
77218;DHT22;66214;51.302;17.068;2023-11-21T01:01:24;8.57;96.42
77218;DHT22;66214;51.302;17.068;2023-11-21T01:03:52;8.57;96.38
77218;DHT22;66214;51.302;17.068;2023-11-21T01:06:21;8.57;96.42
77218;DHT22;66214;51.302;17.068;2023-11-21T01:08:49;8.57;96.36
77218;DHT22;66214;51.302;17.068;2023-11-21T01:11:17;8.56;96.34
77218;DHT22;66214;51.302;17.068;2023-11-21T01:13:45;8.56;96.31
77218;DHT22;66214;51.302;17.068;2023-11-21T01:16:13;8.55;96.40
77218;DHT22;66214;51.302;17.068;2023-11-21T01:18:41;8.57;96.43
77218;DHT22;66214;51.302;17.068;2023-11-21T01:21:09;8.57;96.46
77218;DHT22;66214;51.302;17.068;2023-11-21T01:23:37;8.58;96.46
77218;DHT22;66214;51.302;17.068;2023-11-21T01:26:05;8.57;96.45
77218;DHT22;66214;51.302;17.068;2023-11-21T01:28:35;8.57;96.47
77218;DHT22;66214;51.302;17.068;2023-11-21T01:31:03;8.57;96.44
77218;DHT22;66214;51.302;17.068;2023-11-21T01:33:31;8.56;96.38
77218;DHT22;66214;51.302;17.068;2023-11-21T01:35:59;8.54;96.27
77218;DHT22;66214;51.302;17.068;2023-11-21T01:38:27;8.52;96.34
77218;DHT22;66214;51.302;17.068;2023-11-21T01:40:55;8.53;96.33
77218;DHT22;66214;51.302;17.068;2023-11-21T01:43:23;8.53;96.38
77218;DHT22;66214;51.302;17.068;2023-11-21T01:45:53;8.52;96.35
77218;DHT22;66214;51.302;17.068;2023-11-21T01:48:24;8.52;96.38
77218;DHT22;66214;51.302;17.068;2023-11-21T01:50:53;8.52;96.39
77218;DHT22;66214;51.302;17.068;2023-11-21T01:53:23;8.51;96.42
77218;DHT22;66214;51.302;17.068;2023-11-21T01:55:55;8.51;96.32
77218;DHT22;66214;51.302;17.068;2023-11-21T01:58:24;8.51;96.40
77218;DHT22;66214;51.302;17.068;2023-11-21T02:00:52;8.51;96.37
77218;DHT22;66214;51.302;17.068;2023-11-21T02:03:22;8.50;96.39
77218;DHT22;66214;51.302;17.068;2023-11-21T02:05:50;8.49;96.37
77218;DHT22;66214;51.302;17.068;2023-11-21T05:03:55;8.40;96.25
77218;DHT22;66214;51.302;17.068;2023-11-21T05:06:24;8.42;96.23
77218;DHT22;66214;51.302;17.068;2023-11-21T05:08:52;8.43;96.29
77218;DHT22;66214;51.302;17.068;2023-11-21T05:11:27;8.42;96.28
77218;DHT22;66214;51.302;17.068;2023-11-21T05:13:57;8.40;96.30
77218;DHT22;66214;51.302;17.068;2023-11-21T05:16:26;8.40;96.31
77218;DHT22;66214;51.302;17.068;2023-11-21T05:18:55;8.37;96.28
77218;DHT22;66214;51.302;17.068;2023-11-21T05:21:28;8.38;96.31
77218;DHT22;66214;51.302;17.068;2023-11-21T05:23:58;8.38;96.35
77218;DHT22;66214;51.302;17.068;2023-11-21T05:26:26;8.37;96.29
77218;DHT22;66214;51.302;17.068;2023-11-21T05:28:55;8.35;96.28
77218;DHT22;66214;51.302;17.068;2023-11-21T05:31:23;8.32;96.37
77218;DHT22;66214;51.302;17.068;2023-11-21T05:33:51;8.33;96.45
77218;DHT22;66214;51.302;17.068;2023-11-21T05:36:19;8.33;96.42
77218;DHT22;66214;51.302;17.068;2023-11-21T05:38:47;8.32;96.36
77218;DHT22;66214;51.302;17.068;2023-11-21T05:41:15;8.32;96.42
77218;DHT22;66214;51.302;17.068;2023-11-21T05:43:43;8.32;96.38
77218;DHT22;66214;51.302;17.068;2023-11-21T05:46:11;8.31;96.45
77218;DHT22;66214;51.302;17.068;2023-11-21T05:48:40;8.31;96.44
77218;DHT22;66214;51.302;17.068;2023-11-21T05:51:09;8.31;96.29
77218;DHT22;66214;51.302;17.068;2023-11-21T05:53:39;8.29;96.35
77218;DHT22;66214;51.302;17.068;2023-11-21T05:56:08;8.28;96.40
77218;DHT22;66214;51.302;17.068;2023-11-21T05:58:36;8.27;96.35
77218;DHT22;66214;51.302;17.068;2023-11-21T06:01:05;8.26;96.32
77218;DHT22;66214;51.302;17.068;2023-11-21T06:03:37;8.24;96.43
77218;DHT22;66214;51.302;17.068;2023-11-21T06:06:05;8.23;96.42
77218;DHT22;66214;51.302;17.068;2023-11-21T06:08:34;8.22;96.43
77218;DHT22;66214;51.302;17.068;2023-11-21T06:11:02;8.21;96.42
77218;DHT22;66214;51.302;17.068;2023-11-21T06:13:30;8.20;96.43
77218;DHT22;66214;51.302;17.068;2023-11-21T06:15:59;8.19;96.43
77218;DHT22;66214;51.302;17.068;2023-11-21T06:18:28;8.19;96.45
77218;DHT22;66214;51.302;17.068;2023-11-21T06:20:56;8.17;96.42
77218;DHT22;66214;51.302;17.068;2023-11-21T06:23:24;8.16;96.44
77218;DHT22;66214;51.302;17.068;2023-11-21T06:25:52;8.16;96.53
77218;DHT22;66214;51.302;17.068;2023-11-21T06:28:20;8.16;96.59
77218;DHT22;66214;51.302;17.068;2023-11-21T06:30:48;8.18;96.60
77218;DHT22;66214;51.302;17.068;2023-11-21T06:33:18;8.17;96.52
77218;DHT22;66214;51.302;17.068;2023-11-21T06:35:46;8.15;96.49
77218;DHT22;66214;51.302;17.068;2023-11-21T06:38:14;8.15;96.54
77218;DHT22;66214;51.302;17.068;2023-11-21T06:40:43;8.16;96.53
77218;DHT22;66214;51.302;17.068;2023-11-21T06:43:12;8.17;96.57
77218;DHT22;66214;51.302;17.068;2023-11-21T06:45:41;8.16;96.54
77218;DHT22;66214;51.302;17.068;2023-11-21T06:48:09;8.19;96.67
77218;DHT22;66214;51.302;17.068;2023-11-21T06:50:38;8.20;96.65
77218;DHT22;66214;51.302;17.068;2023-11-21T06:53:06;8.20;96.62
77218;DHT22;66214;51.302;17.068;2023-11-21T06:55:35;8.21;96.62
77218;DHT22;66214;51.302;17.068;2023-11-21T06:58:03;8.22;96.68
77218;DHT22;66214;51.302;17.068;2023-11-21T07:00:32;8.24;96.72
77218;DHT22;66214;51.302;17.068;2023-11-21T07:03:01;8.25;96.69
77218;DHT22;66214;51.302;17.068;2023-11-21T07:05:29;8.28;96.70
77218;DHT22;66214;51.302;17.068;2023-11-21T07:07:57;8.30;96.72
77218;DHT22;66214;51.302;17.068;2023-11-21T07:10:31;8.30;96.69
77218;DHT22;66214;51.302;17.068;2023-11-21T07:12:59;8.29;96.67
77218;DHT22;66214;51.302;17.068;2023-11-21T07:15:28;8.31;96.76
77218;DHT22;66214;51.302;17.068;2023-11-21T07:17:57;8.32;96.80
77218;DHT22;66214;51.302;17.068;2023-11-21T07:20:25;8.33;96.75
77218;DHT22;66214;51.302;17.068;2023-11-21T07:22:53;8.34;96.78
77218;DHT22;66214;51.302;17.068;2023-11-21T07:25:21;8.36;96.81
77218;DHT22;66214;51.302;17.068;2023-11-21T07:27:49;8.38;96.77
77218;DHT22;66214;51.302;17.068;2023-11-21T07:30:17;8.38;96.73
77218;DHT22;66214;51.302;17.068;2023-11-21T07:32:46;8.40;96.80
77218;DHT22;66214;51.302;17.068;2023-11-21T07:35:16;8.41;96.81
77218;DHT22;66214;51.302;17.068;2023-11-21T07:37:59;8.45;96.77
77218;DHT22;66214;51.302;17.068;2023-11-21T07:40:27;8.51;96.84
77218;DHT22;66214;51.302;17.068;2023-11-21T07:42:55;8.53;96.87
77218;DHT22;66214;51.302;17.068;2023-11-21T07:45:25;8.54;96.81
77218;DHT22;66214;51.302;17.068;2023-11-21T07:47:55;8.55;96.83
77218;DHT22;66214;51.302;17.068;2023-11-21T07:50:23;8.57;96.86
77218;DHT22;66214;51.302;17.068;2023-11-21T07:52:52;8.59;96.85
77218;DHT22;66214;51.302;17.068;2023-11-21T07:55:22;8.61;96.90
77218;DHT22;66214;51.302;17.068;2023-11-21T07:57:50;8.62;96.83
77218;DHT22;66214;51.302;17.068;2023-11-21T08:00:18;8.64;96.80
77218;DHT22;66214;51.302;17.068;2023-11-21T08:02:48;8.65;96.78
77218;DHT22;66214;51.302;17.068;2023-11-21T08:05:16;8.66;96.87
77218;DHT22;66214;51.302;17.068;2023-11-21T08:10:56;8.72;96.87
77218;DHT22;66214;51.302;17.068;2023-11-21T08:13:29;8.72;96.80
77218;DHT22;66214;51.302;17.068;2023-11-21T08:16:00;8.71;96.74
77218;DHT22;66214;51.302;17.068;2023-11-21T08:18:30;8.74;96.76
77218;DHT22;66214;51.302;17.068;2023-11-21T08:20:59;8.79;96.81
77218;DHT22;66214;51.302;17.068;2023-11-21T08:23:28;8.80;96.72
77218;DHT22;66214;51.302;17.068;2023-11-21T08:25:57;8.79;96.62
77218;DHT22;66214;51.302;17.068;2023-11-21T08:28:25;8.81;96.62
77218;DHT22;66214;51.302;17.068;2023-11-21T08:30:53;8.82;96.66
77218;DHT22;66214;51.302;17.068;2023-11-21T08:33:24;8.81;96.66
77218;DHT22;66214;51.302;17.068;2023-11-21T08:35:52;8.79;96.67
77218;DHT22;66214;51.302;17.068;2023-11-21T08:38:20;8.77;96.61
77218;DHT22;66214;51.302;17.068;2023-11-21T08:40:48;8.68;96.37
77218;DHT22;66214;51.302;17.068;2023-11-21T08:43:17;8.52;96.03
77218;DHT22;66214;51.302;17.068;2023-11-21T08:45:47;8.38;95.81
77218;DHT22;66214;51.302;17.068;2023-11-21T08:48:15;8.30;95.93
77218;DHT22;66214;51.302;17.068;2023-11-21T08:50:43;8.24;95.99
77218;DHT22;66214;51.302;17.068;2023-11-21T08:53:11;8.17;95.97
77218;DHT22;66214;51.302;17.068;2023-11-21T08:55:39;8.09;95.88
77218;DHT22;66214;51.302;17.068;2023-11-21T08:58:07;8.07;95.99
77218;DHT22;66214;51.302;17.068;2023-11-21T09:00:35;7.96;95.29
77218;DHT22;66214;51.302;17.068;2023-11-21T09:03:04;7.89;95.51
77218;DHT22;66214;51.302;17.068;2023-11-21T09:05:37;7.82;95.57
77218;DHT22;66214;51.302;17.068;2023-11-21T09:08:07;7.79;95.82
77218;DHT22;66214;51.302;17.068;2023-11-21T09:10:35;7.76;95.88
77218;DHT22;66214;51.302;17.068;2023-11-21T09:13:04;7.75;95.88
77218;DHT22;66214;51.302;17.068;2023-11-21T09:15:32;7.75;95.85
77218;DHT22;66214;51.302;17.068;2023-11-21T09:18:00;7.80;96.13
77218;DHT22;66214;51.302;17.068;2023-11-21T09:20:29;7.86;96.42
77218;DHT22;66214;51.302;17.068;2023-11-21T09:22:57;7.85;96.34
77218;DHT22;66214;51.302;17.068;2023-11-21T09:25:26;7.82;96.18
77218;DHT22;66214;51.302;17.068;2023-11-21T09:27:54;7.77;95.92
77218;DHT22;66214;51.302;17.068;2023-11-21T09:30:22;7.73;95.86
77218;DHT22;66214;51.302;17.068;2023-11-21T09:32:52;7.72;95.94
77218;DHT22;66214;51.302;17.068;2023-11-21T09:35:20;7.71;95.92
77218;DHT22;66214;51.302;17.068;2023-11-21T09:37:48;7.69;95.93
77218;DHT22;66214;51.302;17.068;2023-11-21T09:40:16;7.66;96.03
77218;DHT22;66214;51.302;17.068;2023-11-21T09:42:54;7.65;96.32
77218;DHT22;66214;51.302;17.068;2023-11-21T09:45:27;7.59;95.98
77218;DHT22;66214;51.302;17.068;2023-11-21T09:47:59;7.55;95.89
77218;DHT22;66214;51.302;17.068;2023-11-21T09:50:28;7.51;95.82
77218;DHT22;66214;51.302;17.068;2023-11-21T09:55:42;7.45;96.13
77218;DHT22;66214;51.302;17.068;2023-11-21T09:58:15;7.36;95.78
77218;DHT22;66214;51.302;17.068;2023-11-21T10:04:08;7.34;95.96
77218;DHT22;66214;51.302;17.068;2023-11-21T10:06:40;7.29;95.57
77218;DHT22;66214;51.302;17.068;2023-11-21T10:09:09;7.28;95.89
77218;DHT22;66214;51.302;17.068;2023-11-21T10:11:42;7.27;96.08
77218;DHT22;66214;51.302;17.068;2023-11-21T10:14:14;7.27;96.13
77218;DHT22;66214;51.302;17.068;2023-11-21T10:16:44;7.26;96.20
77218;DHT22;66214;51.302;17.068;2023-11-21T10:19:15;7.16;96.11
77218;DHT22;66214;51.302;17.068;2023-11-21T10:21:44;7.09;95.96
77218;DHT22;66214;51.302;17.068;2023-11-21T10:24:13;7.03;95.97
77218;DHT22;66214;51.302;17.068;2023-11-21T10:26:41;7.00;96.05
77218;DHT22;66214;51.302;17.068;2023-11-21T10:29:10;6.93;95.71
77218;DHT22;66214;51.302;17.068;2023-11-21T10:31:44;6.86;95.61
77218;DHT22;66214;51.302;17.068;2023-11-21T10:34:17;6.83;95.82
77218;DHT22;66214;51.302;17.068;2023-11-21T10:36:47;6.85;95.87
77218;DHT22;66214;51.302;17.068;2023-11-21T10:39:16;6.88;95.93
77218;DHT22;66214;51.302;17.068;2023-11-21T10:41:46;6.86;95.54
77218;DHT22;66214;51.302;17.068;2023-11-21T10:44:16;6.88;95.85
77218;DHT22;66214;51.302;17.068;2023-11-21T10:46:52;6.91;95.89
77218;DHT22;66214;51.302;17.068;2023-11-21T10:49:25;6.94;95.98
77218;DHT22;66214;51.302;17.068;2023-11-21T10:51:54;6.91;95.81
77218;DHT22;66214;51.302;17.068;2023-11-21T10:54:24;6.86;95.66
77218;DHT22;66214;51.302;17.068;2023-11-21T10:56:56;6.72;95.02
77218;DHT22;66214;51.302;17.068;2023-11-21T10:59:30;6.59;94.93
77218;DHT22;66214;51.302;17.068;2023-11-21T11:03:58;6.44;94.99
77218;DHT22;66214;51.302;17.068;2023-11-21T11:06:29;6.31;94.17
77218;DHT22;66214;51.302;17.068;2023-11-21T11:09:00;6.28;94.67
77218;DHT22;66214;51.302;17.068;2023-11-21T11:11:30;6.17;94.17
77218;DHT22;66214;51.302;17.068;2023-11-21T11:13:58;6.09;94.65
77218;DHT22;66214;51.302;17.068;2023-11-21T11:16:30;5.95;94.15
77218;DHT22;66214;51.302;17.068;2023-11-21T11:19:02;5.90;94.27
77218;DHT22;66214;51.302;17.068;2023-11-21T11:21:48;5.91;94.65
77218;DHT22;66214;51.302;17.068;2023-11-21T11:25:05;5.91;94.84
77218;DHT22;66214;51.302;17.068;2023-11-21T11:42:12;5.66;94.74
77218;DHT22;66214;51.302;17.068;2023-11-21T11:47:15;5.54;94.52
77218;DHT22;66214;51.302;17.068;2023-11-21T11:52:41;5.48;94.65
77218;DHT22;66214;51.302;17.068;2023-11-21T11:55:19;5.44;94.52
77218;DHT22;66214;51.302;17.068;2023-11-21T11:57:53;5.36;94.35
77218;DHT22;66214;51.302;17.068;2023-11-21T12:02:55;5.18;94.55
77218;DHT22;66214;51.302;17.068;2023-11-21T12:05:32;5.14;95.01
77218;DHT22;66214;51.302;17.068;2023-11-21T12:08:10;5.07;94.92
77218;DHT22;66214;51.302;17.068;2023-11-21T12:10:39;5.00;95.26
77218;DHT22;66214;51.302;17.068;2023-11-21T12:13:10;4.91;95.16
77218;DHT22;66214;51.302;17.068;2023-11-21T12:15:42;4.80;94.49
77218;DHT22;66214;51.302;17.068;2023-11-21T12:18:10;4.75;94.88
77218;DHT22;66214;51.302;17.068;2023-11-21T12:20:38;4.63;94.64
77218;DHT22;66214;51.302;17.068;2023-11-21T12:23:08;4.58;95.06
77218;DHT22;66214;51.302;17.068;2023-11-21T12:25:37;4.51;94.80
77218;DHT22;66214;51.302;17.068;2023-11-21T12:28:07;4.54;95.30
77218;DHT22;66214;51.302;17.068;2023-11-21T12:30:36;4.51;94.96
77218;DHT22;66214;51.302;17.068;2023-11-21T12:33:05;4.55;95.74
77218;DHT22;66214;51.302;17.068;2023-11-21T12:35:36;4.49;95.22
77218;DHT22;66214;51.302;17.068;2023-11-21T12:38:05;4.45;95.09
77218;DHT22;66214;51.302;17.068;2023-11-21T12:40:33;4.39;94.91
77218;DHT22;66214;51.302;17.068;2023-11-21T12:43:01;4.37;95.06
77218;DHT22;66214;51.302;17.068;2023-11-21T12:45:31;4.38;95.44
77218;DHT22;66214;51.302;17.068;2023-11-21T12:48:00;4.28;94.73
77218;DHT22;66214;51.302;17.068;2023-11-21T12:50:35;4.13;94.02
77218;DHT22;66214;51.302;17.068;2023-11-21T12:53:08;4.17;95.02
77218;DHT22;66214;51.302;17.068;2023-11-21T12:55:40;4.12;95.01
77218;DHT22;66214;51.302;17.068;2023-11-21T12:58:09;4.06;95.00
77218;DHT22;66214;51.302;17.068;2023-11-21T13:00:46;4.02;95.21
77218;DHT22;66214;51.302;17.068;2023-11-21T13:03:16;3.99;95.28
77218;DHT22;66214;51.302;17.068;2023-11-21T13:05:47;4.00;95.49
77218;DHT22;66214;51.302;17.068;2023-11-21T13:08:21;3.99;95.37
77218;DHT22;66214;51.302;17.068;2023-11-21T13:10:53;4.00;95.61
77218;DHT22;66214;51.302;17.068;2023-11-21T13:13:24;3.97;95.58
77218;DHT22;66214;51.302;17.068;2023-11-21T13:16:02;3.93;95.49
77218;DHT22;66214;51.302;17.068;2023-11-21T13:18:33;3.89;95.24
77218;DHT22;66214;51.302;17.068;2023-11-21T13:21:02;3.88;95.43
77218;DHT22;66214;51.302;17.068;2023-11-21T13:23:40;3.79;95.12
77218;DHT22;66214;51.302;17.068;2023-11-21T13:26:09;3.68;94.50
77218;DHT22;66214;51.302;17.068;2023-11-21T13:28:38;3.63;95.04
77218;DHT22;66214;51.302;17.068;2023-11-21T13:31:08;3.49;94.57
77218;DHT22;66214;51.302;17.068;2023-11-21T13:33:54;3.44;94.71
77218;DHT22;66214;51.302;17.068;2023-11-21T13:36:32;3.42;94.89
77218;DHT22;66214;51.302;17.068;2023-11-21T13:39:03;3.39;94.59
77218;DHT22;66214;51.302;17.068;2023-11-21T13:41:42;3.39;94.87
77218;DHT22;66214;51.302;17.068;2023-11-21T13:44:11;3.33;94.62
77218;DHT22;66214;51.302;17.068;2023-11-21T13:46:45;3.23;94.33
77218;DHT22;66214;51.302;17.068;2023-11-21T13:49:18;3.17;94.40
77218;DHT22;66214;51.302;17.068;2023-11-21T13:51:49;3.10;94.30
77218;DHT22;66214;51.302;17.068;2023-11-21T13:54:20;3.07;94.45
77218;DHT22;66214;51.302;17.068;2023-11-21T13:56:51;3.04;94.52
77218;DHT22;66214;51.302;17.068;2023-11-21T13:59:19;3.07;95.28
77218;DHT22;66214;51.302;17.068;2023-11-21T14:01:56;3.08;95.18
77218;DHT22;66214;51.302;17.068;2023-11-21T14:04:27;3.13;95.56
77218;DHT22;66214;51.302;17.068;2023-11-21T14:06:58;3.15;95.32
77218;DHT22;66214;51.302;17.068;2023-11-21T14:09:28;3.13;95.21
77218;DHT22;66214;51.302;17.068;2023-11-21T14:12:11;3.02;94.55
77218;DHT22;66214;51.302;17.068;2023-11-21T14:14:40;3.06;95.48
77218;DHT22;66214;51.302;17.068;2023-11-21T14:17:08;3.04;94.91
77218;DHT22;66214;51.302;17.068;2023-11-21T14:19:38;3.01;94.95
77218;DHT22;66214;51.302;17.068;2023-11-21T14:22:10;2.96;94.63
77218;DHT22;66214;51.302;17.068;2023-11-21T14:24:39;2.94;94.68
77218;DHT22;66214;51.302;17.068;2023-11-21T14:27:14;2.91;94.55
77218;DHT22;66214;51.302;17.068;2023-11-21T14:29:42;2.94;94.73
77218;DHT22;66214;51.302;17.068;2023-11-21T14:32:12;2.99;95.03
77218;DHT22;66214;51.302;17.068;2023-11-21T14:34:41;2.94;94.96
77218;DHT22;66214;51.302;17.068;2023-11-21T14:37:10;2.85;94.57
77218;DHT22;66214;51.302;17.068;2023-11-21T14:39:41;2.81;94.45
77218;DHT22;66214;51.302;17.068;2023-11-21T14:42:13;2.83;94.75
77218;DHT22;66214;51.302;17.068;2023-11-21T14:44:51;2.85;94.70
77218;DHT22;66214;51.302;17.068;2023-11-21T14:47:20;2.85;94.76
77218;DHT22;66214;51.302;17.068;2023-11-21T14:49:53;2.85;95.11
77218;DHT22;66214;51.302;17.068;2023-11-21T14:52:21;2.85;94.94
77218;DHT22;66214;51.302;17.068;2023-11-21T14:58:28;2.80;95.05
77218;DHT22;66214;51.302;17.068;2023-11-21T15:00:57;2.77;94.75
77218;DHT22;66214;51.302;17.068;2023-11-21T15:03:26;2.75;94.84
77218;DHT22;66214;51.302;17.068;2023-11-21T15:06:00;2.69;94.76
77218;DHT22;66214;51.302;17.068;2023-11-21T15:08:50;2.70;95.45
77218;DHT22;66214;51.302;17.068;2023-11-21T15:11:45;2.68;95.34
77218;DHT22;66214;51.302;17.068;2023-11-21T15:17:41;2.52;94.57
77218;DHT22;66214;51.302;17.068;2023-11-21T15:20:11;2.50;94.61
77218;DHT22;66214;51.302;17.068;2023-11-21T15:22:46;2.49;94.74
77218;DHT22;66214;51.302;17.068;2023-11-21T15:25:14;2.50;95.02
77218;DHT22;66214;51.302;17.068;2023-11-21T15:27:43;2.49;95.04
77218;DHT22;66214;51.302;17.068;2023-11-21T15:30:11;2.46;95.18
77218;DHT22;66214;51.302;17.068;2023-11-21T15:32:39;2.38;94.88
77218;DHT22;66214;51.302;17.068;2023-11-21T15:35:07;2.39;95.55
77218;DHT22;66214;51.302;17.068;2023-11-21T15:37:40;2.35;95.25
77218;DHT22;66214;51.302;17.068;2023-11-21T15:40:08;2.30;95.31
77218;DHT22;66214;51.302;17.068;2023-11-21T15:42:38;2.22;95.27
77218;DHT22;66214;51.302;17.068;2023-11-21T15:45:07;2.22;95.34
77218;DHT22;66214;51.302;17.068;2023-11-21T15:47:35;2.11;94.71
77218;DHT22;66214;51.302;17.068;2023-11-21T15:50:04;2.11;95.04
77218;DHT22;66214;51.302;17.068;2023-11-21T15:52:36;2.06;94.88
77218;DHT22;66214;51.302;17.068;2023-11-21T15:55:05;2.06;95.33
77218;DHT22;66214;51.302;17.068;2023-11-21T15:57:34;2.07;95.21
77218;DHT22;66214;51.302;17.068;2023-11-21T16:00:02;2.10;95.50
77218;DHT22;66214;51.302;17.068;2023-11-21T16:02:38;2.08;95.25
77218;DHT22;66214;51.302;17.068;2023-11-21T16:05:06;2.11;95.34
77218;DHT22;66214;51.302;17.068;2023-11-21T16:07:35;2.08;95.30
77218;DHT22;66214;51.302;17.068;2023-11-21T16:10:03;2.08;95.72
77218;DHT22;66214;51.302;17.068;2023-11-21T16:12:34;1.99;95.09
77218;DHT22;66214;51.302;17.068;2023-11-21T16:15:02;1.93;95.19
77218;DHT22;66214;51.302;17.068;2023-11-21T16:17:36;1.87;95.39
77218;DHT22;66214;51.302;17.068;2023-11-21T16:20:05;1.78;95.22
77218;DHT22;66214;51.302;17.068;2023-11-21T16:22:38;1.77;95.54
77218;DHT22;66214;51.302;17.068;2023-11-21T16:25:07;1.72;95.18
77218;DHT22;66214;51.302;17.068;2023-11-21T16:27:40;1.66;94.96
77218;DHT22;66214;51.302;17.068;2023-11-21T16:30:08;1.66;95.16
77218;DHT22;66214;51.302;17.068;2023-11-21T16:32:38;1.68;95.32
77218;DHT22;66214;51.302;17.068;2023-11-21T16:35:07;1.69;95.48
77218;DHT22;66214;51.302;17.068;2023-11-21T16:37:37;1.61;94.81
77218;DHT22;66214;51.302;17.068;2023-11-21T16:40:05;1.57;94.39
77218;DHT22;66214;51.302;17.068;2023-11-21T16:42:36;1.54;94.50
77218;DHT22;66214;51.302;17.068;2023-11-21T16:45:06;1.52;94.81
77218;DHT22;66214;51.302;17.068;2023-11-21T16:47:35;1.53;94.70
77218;DHT22;66214;51.302;17.068;2023-11-21T16:50:05;1.54;94.40
77218;DHT22;66214;51.302;17.068;2023-11-21T16:52:34;1.55;94.41
77218;DHT22;66214;51.302;17.068;2023-11-21T16:55:02;1.55;94.78
77218;DHT22;66214;51.302;17.068;2023-11-21T16:57:31;1.54;94.73
77218;DHT22;66214;51.302;17.068;2023-11-21T17:00:00;1.55;95.13
77218;DHT22;66214;51.302;17.068;2023-11-21T17:03:56;1.47;94.86
77218;DHT22;66214;51.302;17.068;2023-11-21T17:06:26;1.48;95.04
77218;DHT22;66214;51.302;17.068;2023-11-21T17:08:54;1.49;95.04
77218;DHT22;66214;51.302;17.068;2023-11-21T17:11:23;1.47;94.76
77218;DHT22;66214;51.302;17.068;2023-11-21T17:13:51;1.43;94.32
77218;DHT22;66214;51.302;17.068;2023-11-21T17:16:19;1.46;95.01
77218;DHT22;66214;51.302;17.068;2023-11-21T17:18:47;1.47;94.89
77218;DHT22;66214;51.302;17.068;2023-11-21T17:21:15;1.45;94.91
77218;DHT22;66214;51.302;17.068;2023-11-21T17:23:44;1.46;94.85
77218;DHT22;66214;51.302;17.068;2023-11-21T17:26:12;1.43;94.23
77218;DHT22;66214;51.302;17.068;2023-11-21T17:28:43;1.44;94.51
77218;DHT22;66214;51.302;17.068;2023-11-21T17:31:11;1.46;94.87
77218;DHT22;66214;51.302;17.068;2023-11-21T17:33:39;1.49;95.08
77218;DHT22;66214;51.302;17.068;2023-11-21T17:36:09;1.51;95.05
77218;DHT22;66214;51.302;17.068;2023-11-21T17:38:41;1.55;95.13
77218;DHT22;66214;51.302;17.068;2023-11-21T17:41:10;1.57;95.25
77218;DHT22;66214;51.302;17.068;2023-11-21T17:43:39;1.59;95.27
77218;DHT22;66214;51.302;17.068;2023-11-21T17:46:09;1.61;95.38
77218;DHT22;66214;51.302;17.068;2023-11-21T17:48:39;1.57;95.21
77218;DHT22;66214;51.302;17.068;2023-11-21T17:51:08;1.54;95.14
77218;DHT22;66214;51.302;17.068;2023-11-21T17:53:36;1.54;95.44
77218;DHT22;66214;51.302;17.068;2023-11-21T17:56:05;1.56;95.52
77218;DHT22;66214;51.302;17.068;2023-11-21T17:58:33;1.55;95.48
77218;DHT22;66214;51.302;17.068;2023-11-21T18:01:01;1.54;95.26
77218;DHT22;66214;51.302;17.068;2023-11-21T18:03:29;1.50;94.96
77218;DHT22;66214;51.302;17.068;2023-11-21T18:05:57;1.49;95.14
77218;DHT22;66214;51.302;17.068;2023-11-21T18:08:25;1.46;95.03
77218;DHT22;66214;51.302;17.068;2023-11-21T18:10:53;1.46;95.31
77218;DHT22;66214;51.302;17.068;2023-11-21T18:13:22;1.39;95.05
77218;DHT22;66214;51.302;17.068;2023-11-21T18:15:50;1.34;94.92
77218;DHT22;66214;51.302;17.068;2023-11-21T18:18:18;1.28;94.45
77218;DHT22;66214;51.302;17.068;2023-11-21T18:20:47;1.22;94.48
77218;DHT22;66214;51.302;17.068;2023-11-21T18:23:15;1.21;94.70
77218;DHT22;66214;51.302;17.068;2023-11-21T18:25:43;1.17;94.45
77218;DHT22;66214;51.302;17.068;2023-11-21T18:28:12;1.17;95.07
77218;DHT22;66214;51.302;17.068;2023-11-21T18:30:41;1.17;95.25
77218;DHT22;66214;51.302;17.068;2023-11-21T18:33:10;1.19;95.18
77218;DHT22;66214;51.302;17.068;2023-11-21T18:35:39;1.23;95.44
77218;DHT22;66214;51.302;17.068;2023-11-21T18:38:07;1.28;95.73
77218;DHT22;66214;51.302;17.068;2023-11-21T18:40:37;1.31;95.80
77218;DHT22;66214;51.302;17.068;2023-11-21T18:43:05;1.28;95.42
77218;DHT22;66214;51.302;17.068;2023-11-21T18:45:33;1.21;94.93
77218;DHT22;66214;51.302;17.068;2023-11-21T18:48:02;1.20;95.18
77218;DHT22;66214;51.302;17.068;2023-11-21T18:50:31;1.20;95.22
77218;DHT22;66214;51.302;17.068;2023-11-21T18:52:59;1.20;95.36
77218;DHT22;66214;51.302;17.068;2023-11-21T18:55:27;1.17;94.96
77218;DHT22;66214;51.302;17.068;2023-11-21T18:57:56;1.14;94.81
77218;DHT22;66214;51.302;17.068;2023-11-21T19:00:24;1.17;95.42
77218;DHT22;66214;51.302;17.068;2023-11-21T19:02:52;1.19;95.50
77218;DHT22;66214;51.302;17.068;2023-11-21T19:05:20;1.20;95.60
77218;DHT22;66214;51.302;17.068;2023-11-21T19:07:48;1.16;95.41
77218;DHT22;66214;51.302;17.068;2023-11-21T19:10:16;1.15;95.50
77218;DHT22;66214;51.302;17.068;2023-11-21T19:12:46;1.18;95.62
77218;DHT22;66214;51.302;17.068;2023-11-21T19:15:14;1.15;95.51
77218;DHT22;66214;51.302;17.068;2023-11-21T19:17:44;1.15;95.63
77218;DHT22;66214;51.302;17.068;2023-11-21T19:20:12;1.19;95.75
77218;DHT22;66214;51.302;17.068;2023-11-21T19:22:40;1.15;95.69
77218;DHT22;66214;51.302;17.068;2023-11-21T19:25:08;1.05;95.00
77218;DHT22;66214;51.302;17.068;2023-11-21T19:27:38;1.02;95.26